createdAt,value
2019-02-07T00:00:21.599Z,11.33
2019-02-07T00:02:47.773Z,9.77
2019-02-07T00:05:14.196Z,10.57
2019-02-07T00:07:40.380Z,10.13
2019-02-07T00:10:11.711Z,10.80
2019-02-07T00:12:37.887Z,9.60
2019-02-07T00:15:08.678Z,8.33
2019-02-07T00:17:34.856Z,9.97
2019-02-07T00:20:02.211Z,9.73
2019-02-07T00:22:28.386Z,9.20
2019-02-07T00:24:54.618Z,9.23
2019-02-07T00:27:20.804Z,11.13
2019-02-07T00:29:46.968Z,9.07
2019-02-07T00:32:13.159Z,11.37
2019-02-07T00:34:39.349Z,10.23
2019-02-07T00:37:05.513Z,11.33
2019-02-07T00:39:31.702Z,11.10
2019-02-07T00:41:57.879Z,11.67
2019-02-07T00:44:24.051Z,10.53
2019-02-07T00:46:50.233Z,10.40
2019-02-07T00:49:16.476Z,13.37
2019-02-07T00:51:42.677Z,10.87
2019-02-07T00:54:09.073Z,10.57
2019-02-07T00:56:35.260Z,12.27
2019-02-07T00:59:01.673Z,10.27
2019-02-07T01:01:30.070Z,13.07
2019-02-07T01:03:56.238Z,11.83
2019-02-07T01:06:22.420Z,10.40
2019-02-07T01:08:49.013Z,12.17
2019-02-07T01:11:15.600Z,11.07
2019-02-07T01:13:42.215Z,11.60
2019-02-07T01:16:08.429Z,11.43
2019-02-07T01:18:34.593Z,11.50
2019-02-07T01:21:00.876Z,11.90
2019-02-07T01:23:27.115Z,9.53
2019-02-07T01:25:53.321Z,11.73
2019-02-07T01:28:19.476Z,11.77
2019-02-07T01:30:45.668Z,11.97
2019-02-07T01:33:11.940Z,13.47
2019-02-07T01:35:44.308Z,10.40
2019-02-07T01:38:10.491Z,12.90
2019-02-07T01:40:37.035Z,10.93
2019-02-07T01:43:03.259Z,12.73
2019-02-07T01:45:29.438Z,14.23
2019-02-07T01:47:55.596Z,12.03
2019-02-07T01:50:24.239Z,12.77
2019-02-07T01:52:50.904Z,11.83
2019-02-07T01:55:17.367Z,11.80
2019-02-07T01:57:43.906Z,11.53
2019-02-07T02:00:14.596Z,13.73
2019-02-07T02:02:41.193Z,14.30
2019-02-07T02:05:13.184Z,12.90
2019-02-07T02:07:39.641Z,12.50
2019-02-07T02:10:14.026Z,11.63
2019-02-07T02:12:40.323Z,10.60
2019-02-07T02:15:09.793Z,11.57
2019-02-07T02:17:36.169Z,11.80
2019-02-07T02:20:07.042Z,9.63
2019-02-07T02:22:33.254Z,14.67
2019-02-07T02:24:59.724Z,13.73
2019-02-07T02:27:26.280Z,13.07
2019-02-07T02:29:52.495Z,12.27
2019-02-07T02:32:18.736Z,10.57
2019-02-07T02:34:44.889Z,12.50
2019-02-07T02:37:11.661Z,11.47
2019-02-07T02:39:37.994Z,12.00
2019-02-07T02:42:04.356Z,11.77
2019-02-07T02:44:31.013Z,11.37
2019-02-07T02:46:57.182Z,13.20
2019-02-07T02:49:23.501Z,11.53
2019-02-07T02:51:49.685Z,12.40
2019-02-07T02:54:33.042Z,11.77
2019-02-07T02:56:59.232Z,11.10
2019-02-07T02:59:25.924Z,10.63
2019-02-07T03:01:56.741Z,11.57
2019-02-07T03:04:24.836Z,11.70
2019-02-07T03:06:52.903Z,11.33
2019-02-07T03:09:34.634Z,13.17
2019-02-07T03:12:18.147Z,11.97
2019-02-07T03:14:58.416Z,10.60
2019-02-07T03:17:29.522Z,10.60
2019-02-07T03:20:03.396Z,9.30
2019-02-07T03:22:31.525Z,12.53
2019-02-07T03:25:16.281Z,12.50
2019-02-07T03:28:01.269Z,11.33
2019-02-07T03:30:29.681Z,11.03
2019-02-07T03:33:14.209Z,12.30
2019-02-07T03:35:42.316Z,12.93
2019-02-07T03:38:10.426Z,11.13
2019-02-07T03:40:47.526Z,12.97
2019-02-07T03:43:15.600Z,12.07
2019-02-07T03:46:02.958Z,11.23
2019-02-07T03:48:33.166Z,11.37
2019-02-07T03:51:13.402Z,12.57
2019-02-07T03:53:44.152Z,10.23
2019-02-07T03:56:24.412Z,11.33
2019-02-07T03:59:01.573Z,9.87
2019-02-07T04:01:35.665Z,11.10
2019-02-07T04:04:03.875Z,12.63
2019-02-07T04:06:41.158Z,12.13
2019-02-07T04:09:12.812Z,9.93
2019-02-07T04:11:43.791Z,11.80
2019-02-07T04:14:17.889Z,11.97
2019-02-07T04:16:46.171Z,11.93
2019-02-07T04:19:30.804Z,13.73
2019-02-07T04:22:05.180Z,12.60
2019-02-07T04:24:39.396Z,12.57
2019-02-07T04:27:13.660Z,10.67
2019-02-07T04:29:53.990Z,12.43
2019-02-07T04:32:38.171Z,14.33
2019-02-07T04:35:07.187Z,11.70
2019-02-07T04:37:47.444Z,12.77
2019-02-07T04:40:24.539Z,11.30
2019-02-07T04:43:01.555Z,11.90
2019-02-07T04:45:29.653Z,11.80
2019-02-07T04:48:06.925Z,9.97
2019-02-07T04:50:35.121Z,14.00
2019-02-07T04:53:06.525Z,13.00
2019-02-07T04:55:35.805Z,10.87
2019-02-07T04:58:03.880Z,15.43
2019-02-07T05:00:31.951Z,11.57
2019-02-07T05:03:00.019Z,12.23
2019-02-07T05:05:40.404Z,14.17
2019-02-07T05:08:17.553Z,11.57
2019-02-07T05:14:17.771Z,12.10
2019-02-07T05:17:00.855Z,10.97
2019-02-07T05:19:32.270Z,10.50
2019-02-07T05:22:09.371Z,14.40
2019-02-07T05:24:37.473Z,14.17
2019-02-07T05:27:14.818Z,12.03
2019-02-07T05:29:45.988Z,11.70
2019-02-07T05:32:16.995Z,14.03
2019-02-07T05:34:47.790Z,10.67
2019-02-07T05:37:30.890Z,10.53
2019-02-07T05:39:59.282Z,10.43
2019-02-07T05:42:27.686Z,11.47
2019-02-07T05:45:01.520Z,13.47
2019-02-07T05:47:35.511Z,11.13
2019-02-07T05:50:14.649Z,13.07
2019-02-07T05:53:20.708Z,11.43
2019-02-07T05:56:05.754Z,11.47
2019-02-07T05:58:43.404Z,13.27
2019-02-07T06:01:11.686Z,11.77
2019-02-07T06:03:51.739Z,11.37
2019-02-07T06:06:19.832Z,10.80
2019-02-07T06:08:50.904Z,12.93
2019-02-07T06:11:34.295Z,10.67
2019-02-07T06:14:17.847Z,10.83
2019-02-07T06:16:46.057Z,10.70
2019-02-07T06:19:31.335Z,10.27
2019-02-07T06:22:08.889Z,11.50
2019-02-07T06:24:48.907Z,11.03
2019-02-07T06:27:33.735Z,10.50
2019-02-07T06:30:04.659Z,10.80
2019-02-07T06:32:41.773Z,12.03
2019-02-07T06:35:13.025Z,10.77
2019-02-07T06:37:42.612Z,11.37
2019-02-07T06:40:12.151Z,10.80
2019-02-07T06:42:46.277Z,10.10
2019-02-07T06:45:14.617Z,11.40
2019-02-07T06:47:59.258Z,10.37
2019-02-07T06:50:33.354Z,11.63
2019-02-07T06:53:05.028Z,9.90
2019-02-07T06:55:49.820Z,11.93
2019-02-07T06:58:27.044Z,11.70
2019-02-07T07:00:58.174Z,10.40
2019-02-07T07:03:26.295Z,9.30
2019-02-07T07:06:12.440Z,11.97
2019-02-07T07:08:46.307Z,11.63
2019-02-07T07:11:24.013Z,9.77
2019-02-07T07:13:58.227Z,10.80
2019-02-07T07:16:32.162Z,12.73
2019-02-07T07:19:15.198Z,10.93
2019-02-07T07:21:49.133Z,9.77
2019-02-07T07:24:19.998Z,11.20
2019-02-07T07:27:00.107Z,9.93
2019-02-07T07:29:34.452Z,10.67
2019-02-07T07:32:03.751Z,10.50
2019-02-07T07:34:48.443Z,10.73
2019-02-07T07:37:22.563Z,9.80
2019-02-07T07:40:07.437Z,9.57
2019-02-07T07:42:52.573Z,10.03
2019-02-07T07:45:32.875Z,9.97
2019-02-07T07:48:17.947Z,7.87
2019-02-07T07:50:58.038Z,8.47
2019-02-07T07:53:35.348Z,7.43
2019-02-07T07:56:03.424Z,9.37
2019-02-07T07:58:37.812Z,6.90
2019-02-07T08:01:06.159Z,9.40
2019-02-07T08:03:40.529Z,9.50
2019-02-07T08:06:11.583Z,10.63
2019-02-07T08:08:39.662Z,8.57
2019-02-07T08:11:22.777Z,9.03
2019-02-07T08:14:09.169Z,9.47
2019-02-07T08:16:37.595Z,8.03
2019-02-07T08:19:08.352Z,11.37
2019-02-07T08:21:36.431Z,9.83
2019-02-07T08:24:11.219Z,10.47
2019-02-07T08:26:55.983Z,9.17
2019-02-07T08:29:36.227Z,8.37
2019-02-07T08:32:14.181Z,8.53
2019-02-07T08:35:00.301Z,9.67
2019-02-07T08:37:45.299Z,10.53
2019-02-07T08:40:31.730Z,9.67
2019-02-07T08:43:05.548Z,10.23
2019-02-07T08:45:36.529Z,8.97
2019-02-07T08:48:09.708Z,8.50
2019-02-07T08:50:40.724Z,8.20
2019-02-07T08:53:15.407Z,8.40
2019-02-07T08:55:52.281Z,11.60
2019-02-07T08:58:23.359Z,10.47
2019-02-07T09:00:51.436Z,9.17
2019-02-07T09:03:34.831Z,9.20
2019-02-07T09:06:08.805Z,7.77
2019-02-07T09:08:42.752Z,8.20
2019-02-07T09:11:27.647Z,10.60
2019-02-07T09:13:55.797Z,11.67
2019-02-07T09:16:26.513Z,10.57
2019-02-07T09:18:54.617Z,10.40
2019-02-07T09:21:31.685Z,9.07
2019-02-07T09:24:02.935Z,9.47
2019-02-07T09:26:48.229Z,11.47
2019-02-07T09:29:32.161Z,12.33
2019-02-07T09:32:18.748Z,10.07
2019-02-07T09:35:03.587Z,10.33
2019-02-07T09:37:34.652Z,10.20
2019-02-07T09:40:05.967Z,13.03
2019-02-07T09:42:40.059Z,13.83
2019-02-07T09:45:30.734Z,12.07
2019-02-07T09:48:21.651Z,11.63
2019-02-07T09:50:45.810Z,11.50
2019-02-07T09:53:25.797Z,13.17
2019-02-07T09:56:02.635Z,12.67
2019-02-07T09:58:33.678Z,12.07
2019-02-07T10:01:07.990Z,10.60
2019-02-07T10:03:36.029Z,11.13
2019-02-07T10:06:10.445Z,13.73
2019-02-07T10:08:41.843Z,13.50
2019-02-07T10:11:12.982Z,11.57
2019-02-07T10:13:41.057Z,11.83
2019-02-07T10:16:18.248Z,12.07
2019-02-07T10:19:04.953Z,11.40
2019-02-07T10:21:47.999Z,9.83
2019-02-07T10:24:31.351Z,8.77
2019-02-07T10:27:00.522Z,10.13
2019-02-07T10:29:31.232Z,10.43
2019-02-07T10:32:02.417Z,11.87
2019-02-07T10:34:36.809Z,9.70
2019-02-07T10:37:14.005Z,11.40
2019-02-07T10:39:42.386Z,11.07
2019-02-07T10:42:26.401Z,10.47
2019-02-07T10:45:00.477Z,13.40
2019-02-07T10:47:45.372Z,10.20
2019-02-07T10:50:13.758Z,10.43
2019-02-07T10:52:56.917Z,8.87
2019-02-07T10:55:25.003Z,13.07
2019-02-07T10:58:09.914Z,8.83
2019-02-07T11:00:38.127Z,8.73
2019-02-07T11:03:39.671Z,7.63
2019-02-07T11:06:07.958Z,9.77
2019-02-07T11:08:54.292Z,8.50
2019-02-07T11:11:41.129Z,11.03
2019-02-07T11:14:09.214Z,10.70
2019-02-07T11:16:37.288Z,9.03
2019-02-07T11:19:08.015Z,9.40
2019-02-07T11:21:52.883Z,9.80
2019-02-07T11:24:39.733Z,10.77
2019-02-07T11:27:23.167Z,10.73
2019-02-07T11:30:07.818Z,9.70
2019-02-07T11:32:52.630Z,8.03
2019-02-07T11:35:37.194Z,10.67
2019-02-07T11:38:21.022Z,10.63
2019-02-07T11:40:54.930Z,9.73
2019-02-07T11:43:39.729Z,11.70
2019-02-07T11:46:08.125Z,9.40
2019-02-07T11:48:36.190Z,8.77
2019-02-07T11:51:21.504Z,8.70
2019-02-07T11:54:07.634Z,10.20
2019-02-07T11:56:35.730Z,9.17
2019-02-07T11:59:12.556Z,9.50
2019-02-07T12:01:49.674Z,9.20
2019-02-07T12:04:23.463Z,9.17
2019-02-07T12:06:54.263Z,9.33
2019-02-07T12:09:39.349Z,10.10
2019-02-07T12:12:13.406Z,11.03
2019-02-07T12:14:47.493Z,11.60
2019-02-07T12:17:15.603Z,8.03
2019-02-07T12:19:46.566Z,10.50
2019-02-07T12:22:14.810Z,10.50
2019-02-07T12:24:55.149Z,9.93
2019-02-07T12:27:23.584Z,11.13
2019-02-07T12:29:51.707Z,9.40
2019-02-07T12:32:25.696Z,8.20
2019-02-07T12:35:13.815Z,8.13
2019-02-07T12:37:41.965Z,8.87
2019-02-07T12:40:13.066Z,8.67
2019-02-07T12:42:44.107Z,12.23
2019-02-07T12:45:27.550Z,10.37
2019-02-07T12:48:02.164Z,9.97
2019-02-07T12:50:47.080Z,8.97
2019-02-07T12:53:24.193Z,8.90
2019-02-07T12:56:07.290Z,10.57
2019-02-07T12:58:35.416Z,12.10
2019-02-07T13:01:06.148Z,10.17
2019-02-07T13:03:37.412Z,11.03
2019-02-07T13:06:14.707Z,10.10
2019-02-07T13:08:49.061Z,10.13
2019-02-07T13:11:20.022Z,10.77
2019-02-07T13:13:56.906Z,9.53
2019-02-07T13:16:24.936Z,11.57
2019-02-07T13:19:05.015Z,9.57
2019-02-07T13:21:42.213Z,12.90
2019-02-07T13:24:25.593Z,11.40
2019-02-07T13:26:53.713Z,8.53
2019-02-07T13:29:26.745Z,8.93
2019-02-07T13:32:11.799Z,10.57
2019-02-07T13:34:39.856Z,13.07
2019-02-07T13:37:08.081Z,11.73
2019-02-07T13:39:48.412Z,10.93
2019-02-07T13:42:17.527Z,11.37
2019-02-07T13:44:48.257Z,10.63
2019-02-07T13:47:33.199Z,11.97
2019-02-07T13:50:01.596Z,12.23
2019-02-07T13:52:32.726Z,11.33
2019-02-07T13:55:17.350Z,13.37
2019-02-07T13:57:54.558Z,10.37
2019-02-07T14:00:39.291Z,12.33
2019-02-07T14:03:19.896Z,13.93
2019-02-07T14:05:48.264Z,14.97
2019-02-07T14:08:25.947Z,11.33
2019-02-07T14:10:54.035Z,15.33
2019-02-07T14:13:22.444Z,14.77
2019-02-07T14:16:05.516Z,11.70
2019-02-07T14:18:53.471Z,9.47
2019-02-07T14:21:24.195Z,12.33
2019-02-07T14:24:09.389Z,14.07
2019-02-07T14:26:44.242Z,11.07
2019-02-07T14:29:12.823Z,11.97
2019-02-07T14:31:43.559Z,11.63
2019-02-07T14:34:11.753Z,13.17
2019-02-07T14:36:39.887Z,14.90
2019-02-07T14:39:21.410Z,15.10
2019-02-07T14:42:06.149Z,11.63
2019-02-07T14:44:46.460Z,11.83
2019-02-07T14:47:12.631Z,12.57
2019-02-07T14:49:38.872Z,14.03
2019-02-07T14:52:05.543Z,14.80
2019-02-07T14:54:31.767Z,11.87
2019-02-07T14:56:57.926Z,12.10
2019-02-07T14:59:24.719Z,11.40
2019-02-07T15:01:50.998Z,12.50
2019-02-07T15:04:17.580Z,10.43
2019-02-07T15:06:44.625Z,12.27
2019-02-07T15:09:13.556Z,10.93
2019-02-07T15:11:40.617Z,10.07
2019-02-07T15:14:07.054Z,10.60
2019-02-07T15:16:33.478Z,12.07
2019-02-07T15:18:59.710Z,11.20
2019-02-07T15:21:26.029Z,11.47
2019-02-07T15:23:52.597Z,12.63
2019-02-07T15:26:18.745Z,11.43
2019-02-07T15:28:45.307Z,11.10
2019-02-07T15:31:11.540Z,11.63
2019-02-07T15:33:37.732Z,12.40
2019-02-07T15:36:07.816Z,11.60
2019-02-07T15:38:33.977Z,13.17
2019-02-07T15:41:00.268Z,9.93
2019-02-07T15:43:26.419Z,10.43
2019-02-07T15:45:53.701Z,12.90
2019-02-07T15:48:19.991Z,12.20
2019-02-07T15:50:46.330Z,11.73
2019-02-07T15:53:12.767Z,11.50
2019-02-07T15:55:38.976Z,10.37
2019-02-07T15:58:05.234Z,12.27
2019-02-07T16:00:36.248Z,12.37
2019-02-07T16:03:05.925Z,11.73
2019-02-07T16:05:32.437Z,14.47
2019-02-07T16:07:58.584Z,12.23
2019-02-07T16:10:25.099Z,14.23
2019-02-07T16:12:51.260Z,13.40
2019-02-07T16:15:17.568Z,12.40
2019-02-07T16:17:44.035Z,12.23
2019-02-07T16:20:17.789Z,11.83
2019-02-07T16:22:44.544Z,13.17
2019-02-07T16:25:16.567Z,12.90
2019-02-07T16:27:43.062Z,12.67
2019-02-07T16:30:15.799Z,16.53
2019-02-07T16:32:42.201Z,10.87
2019-02-07T16:35:11.358Z,13.20
2019-02-07T16:37:37.836Z,11.27
2019-02-07T16:40:09.300Z,12.83
2019-02-07T16:42:35.544Z,10.77
2019-02-07T16:45:05.895Z,10.33
2019-02-07T16:47:32.099Z,14.60
2019-02-07T16:49:58.435Z,11.73
2019-02-07T16:52:24.630Z,11.63
2019-02-07T16:54:51.354Z,14.70
2019-02-07T16:57:17.546Z,14.33
2019-02-07T16:59:43.862Z,11.63
2019-02-07T17:02:10.122Z,12.17
2019-02-07T17:04:36.272Z,14.83
2019-02-07T17:07:02.743Z,10.40
2019-02-07T17:09:31.130Z,10.63
2019-02-07T17:11:57.332Z,11.60
2019-02-07T17:14:23.933Z,12.00
2019-02-07T17:16:50.116Z,13.03
2019-02-07T17:19:16.293Z,13.27
2019-02-07T17:21:42.542Z,13.13
2019-02-07T17:24:08.705Z,13.60
2019-02-07T17:26:34.926Z,11.50
2019-02-07T17:29:01.081Z,13.80
2019-02-07T17:31:27.409Z,13.77
2019-02-07T17:33:53.900Z,12.17
2019-02-07T17:36:20.440Z,13.20
2019-02-07T17:38:46.772Z,12.17
2019-02-07T17:41:13.111Z,11.93
2019-02-07T17:43:39.375Z,13.00
2019-02-07T17:46:05.638Z,15.90
2019-02-07T17:48:31.834Z,15.40
2019-02-07T17:50:58.077Z,11.97
2019-02-07T17:53:24.605Z,13.50
2019-02-07T17:55:51.233Z,12.73
2019-02-07T17:58:17.398Z,12.97
2019-02-07T18:00:56.797Z,13.10
2019-02-07T18:03:23.257Z,12.97
2019-02-07T18:05:49.515Z,14.10
2019-02-07T18:08:16.107Z,13.63
2019-02-07T18:10:42.425Z,14.63
2019-02-07T18:13:08.794Z,13.87
2019-02-07T18:15:34.953Z,12.57
2019-02-07T18:18:01.184Z,12.70
2019-02-07T18:20:27.561Z,14.60
2019-02-07T18:22:54.022Z,14.67
2019-02-07T18:25:20.253Z,12.80
2019-02-07T18:27:46.484Z,12.70
2019-02-07T18:30:20.649Z,13.27
2019-02-07T18:32:46.998Z,13.97
2019-02-07T18:35:14.994Z,15.53
2019-02-07T18:37:41.395Z,14.90
2019-02-07T18:40:16.045Z,14.97
2019-02-07T18:42:43.218Z,16.40
2019-02-07T18:45:16.116Z,14.97
2019-02-07T18:47:42.791Z,16.10
2019-02-07T18:50:26.459Z,15.13
2019-02-07T18:52:52.857Z,13.20
2019-02-07T18:55:19.022Z,12.33
2019-02-07T18:57:45.230Z,14.43
2019-02-07T19:00:22.278Z,15.23
2019-02-07T19:02:50.248Z,12.97
2019-02-07T19:05:19.727Z,13.87
2019-02-07T19:07:46.099Z,18.10
2019-02-07T19:10:36.833Z,14.43
2019-02-07T19:13:03.974Z,17.63
2019-02-07T19:15:50.228Z,16.63
2019-02-07T19:18:16.427Z,15.33
2019-02-07T19:20:42.733Z,18.37
2019-02-07T19:23:08.941Z,15.57
2019-02-07T19:25:35.573Z,13.00
2019-02-07T19:28:04.192Z,13.43
2019-02-07T19:30:32.070Z,16.60
2019-02-07T19:32:59.017Z,17.80
2019-02-07T19:35:25.301Z,13.87
2019-02-07T19:37:51.861Z,14.73
2019-02-07T19:40:19.725Z,14.90
2019-02-07T19:42:45.988Z,13.93
2019-02-07T19:45:16.662Z,14.77
2019-02-07T19:47:42.887Z,14.67
2019-02-07T19:50:13.573Z,15.23
2019-02-07T19:52:40.018Z,14.07
2019-02-07T19:55:11.022Z,16.10
2019-02-07T19:57:37.261Z,15.40
2019-02-07T20:00:15.330Z,13.97
2019-02-07T20:02:41.864Z,13.43
2019-02-07T20:05:09.854Z,15.00
2019-02-07T20:07:36.059Z,14.63
2019-02-07T20:10:15.556Z,17.00
2019-02-07T20:12:42.590Z,16.97
2019-02-07T20:15:20.288Z,16.53
2019-02-07T20:17:46.789Z,16.57
2019-02-07T20:20:15.122Z,16.70
2019-02-07T20:22:41.624Z,15.87
2019-02-07T20:25:10.986Z,15.63
2019-02-07T20:27:37.367Z,15.87
2019-02-07T20:30:17.558Z,17.40
2019-02-07T20:32:43.912Z,15.20
2019-02-07T20:35:11.583Z,12.80
2019-02-07T20:37:37.856Z,16.30
2019-02-07T20:40:09.224Z,14.80
2019-02-07T20:42:35.536Z,17.33
2019-02-07T20:45:02.036Z,16.77
2019-02-07T20:47:28.552Z,14.27
2019-02-07T20:49:55.141Z,20.20
2019-02-07T20:52:27.090Z,15.17
2019-02-07T20:54:49.458Z,17.50
2019-02-07T20:57:16.080Z,17.50
2019-02-07T20:59:42.318Z,15.87
2019-02-07T21:02:08.859Z,17.30
2019-02-07T21:04:35.543Z,18.97
2019-02-07T21:07:03.240Z,18.00
2019-02-07T21:09:29.914Z,14.40
2019-02-07T21:11:56.389Z,17.63
2019-02-07T21:14:22.908Z,22.30
2019-02-07T21:16:49.093Z,17.97
2019-02-07T21:19:15.339Z,19.60
2019-02-07T21:21:41.510Z,16.90
2019-02-07T21:24:08.147Z,15.10
2019-02-07T21:26:34.316Z,18.67
2019-02-07T21:29:00.549Z,17.00
2019-02-07T21:31:26.754Z,16.67
2019-02-07T21:33:53.362Z,17.37
2019-02-07T21:36:19.861Z,16.87
2019-02-07T21:38:46.124Z,17.13
2019-02-07T21:41:12.423Z,19.63
2019-02-07T21:43:38.634Z,17.50
2019-02-07T21:46:04.810Z,17.93
2019-02-07T21:48:31.100Z,17.80
2019-02-07T21:50:57.273Z,16.63
2019-02-07T21:53:23.549Z,15.80
2019-02-07T21:55:49.721Z,18.60
2019-02-07T21:58:16.087Z,19.17
2019-02-07T22:00:44.933Z,17.40
2019-02-07T22:03:12.335Z,18.33
2019-02-07T22:05:39.053Z,17.37
2019-02-07T22:08:06.670Z,16.80
2019-02-07T22:10:33.025Z,16.80
2019-02-07T22:12:59.380Z,19.57
2019-02-07T22:15:26.803Z,18.30
2019-02-07T22:17:53.083Z,17.90
2019-02-07T22:20:27.897Z,17.63
2019-02-07T22:22:57.285Z,17.67
2019-02-07T22:25:23.551Z,19.57
2019-02-07T22:27:50.110Z,18.67
2019-02-07T22:30:30.330Z,19.30
2019-02-07T22:32:57.110Z,17.73
2019-02-07T22:35:23.474Z,20.17
2019-02-07T22:37:49.719Z,19.00
2019-02-07T22:40:19.299Z,18.67
2019-02-07T22:42:48.027Z,16.73
2019-02-07T22:45:17.690Z,18.47
2019-02-07T22:47:44.245Z,17.17
2019-02-07T22:50:17.999Z,13.87
2019-02-07T22:52:44.447Z,17.33
2019-02-07T22:55:11.422Z,17.27
2019-02-07T22:57:37.830Z,20.10
2019-02-07T23:00:37.299Z,21.50
2019-02-07T23:03:23.072Z,20.23
2019-02-07T23:05:49.261Z,20.40
2019-02-07T23:08:15.569Z,17.27
2019-02-07T23:10:42.152Z,14.23
2019-02-07T23:13:09.090Z,18.83
2019-02-07T23:15:35.575Z,24.27
2019-02-07T23:18:02.739Z,18.90
2019-02-07T23:20:35.020Z,22.93
2019-02-07T23:23:05.507Z,23.43
2019-02-07T23:25:31.802Z,18.83
2019-02-07T23:27:58.501Z,19.57
2019-02-07T23:30:24.678Z,16.30
2019-02-07T23:32:50.872Z,18.90
2019-02-07T23:35:17.065Z,21.10
2019-02-07T23:37:43.493Z,21.60
2019-02-07T23:40:16.392Z,16.70
2019-02-07T23:42:42.985Z,18.13
2019-02-07T23:45:13.366Z,19.40
2019-02-07T23:47:39.611Z,16.63
2019-02-07T23:50:09.175Z,16.80
2019-02-07T23:52:35.330Z,20.23
2019-02-07T23:55:01.724Z,17.53
2019-02-07T23:57:27.877Z,19.97
2019-02-07T23:59:54.059Z,21.60
